Time,TemperatureF,DewpointF,PressureIn,WindDirection,WindDirectionDegrees,WindSpeedMPH,WindSpeedGustMPH,Humidity,HourlyPrecipIn,Conditions,Clouds,dailyrainin,SoftwareType,DateUTC
2013-03-30 00:00:00,37.0,-99.9,-100.00,North,-999,-999.0,-999.0,-999,-99.99,,,-99.99,,2013-03-30 07:00:00,
2013-03-30 00:52:00,37.0,-99.9,-100.00,North,-999,-999.0,-999.0,-999,-99.99,,,-99.99,,2013-03-30 07:52:00,
2013-03-30 01:00:00,38.0,-99.9,-100.00,WNW,288,3.0,4.0,-999,-99.99,,,0.00,,2013-03-30 08:00:00,
2013-03-30 02:00:00,38.0,-99.9,-100.00,WNW,282,2.0,4.0,-999,-99.99,,,0.00,,2013-03-30 09:00:00,
2013-03-30 03:00:00,38.0,-99.9,-100.00,ESE,117,0.0,1.0,-999,-99.99,,,0.00,,2013-03-30 10:00:00,
2013-03-30 04:00:00,39.0,-99.9,-100.00,East,95,0.0,1.0,-999,-99.99,,,0.00,,2013-03-30 11:00:00,
2013-03-30 05:00:00,38.0,-99.9,-100.00,ENE,69,0.0,1.0,-999,-99.99,,,0.00,,2013-03-30 12:00:00,
2013-03-30 06:00:00,38.0,-99.9,-100.00,North,8,0.0,1.0,-999,-99.99,,,0.00,,2013-03-30 13:00:00,
2013-03-30 07:00:00,39.0,-99.9,-100.00,East,82,0.0,1.0,-999,-99.99,,,0.00,,2013-03-30 14:00:00,
2013-03-30 07:43:00,39.0,-99.9,-100.00,East,82,0.0,1.0,-999,-99.99,,,0.00,,2013-03-30 14:43:00,
2013-03-30 07:53:00,39.0,-99.9,-100.00,East,82,0.0,1.0,-999,-99.99,,,0.00,,2013-03-30 14:53:00,
2013-03-30 08:00:00,40.0,-99.9,-100.00,East,93,1.0,2.0,-999,-99.99,,,0.00,,2013-03-30 15:00:00,
2013-03-30 08:43:00,40.0,-99.9,-100.00,East,93,1.0,2.0,-999,-99.99,,,0.00,,2013-03-30 15:43:00,
2013-03-30 08:53:00,40.0,-99.9,-100.00,East,93,1.0,2.0,-999,-99.99,,,0.00,,2013-03-30 15:53:00,
2013-03-30 09:00:00,42.0,-99.9,-100.00,East,79,1.0,3.0,-999,-99.99,,,0.00,,2013-03-30 16:00:00,
2013-03-30 10:00:00,47.0,-99.9,-100.00,SE,143,1.0,3.0,-999,-99.99,,,0.00,,2013-03-30 17:00:00,
2013-03-30 10:53:00,47.0,-99.9,-100.00,SE,143,1.0,3.0,-999,-99.99,,,0.00,,2013-03-30 17:53:00,
2013-03-30 11:00:00,48.0,-99.9,-100.00,East,79,1.0,3.0,-999,-99.99,,,0.00,,2013-03-30 18:00:00,
2013-03-30 12:00:00,51.0,-99.9,-100.00,ENE,66,1.0,3.0,-999,-99.99,,,0.00,,2013-03-30 19:00:00,
2013-03-30 13:00:00,53.0,-99.9,-100.00,SE,138,1.0,3.0,-999,-99.99,,,0.00,,2013-03-30 20:00:00,
2013-03-30 14:00:00,54.0,-99.9,-100.00,ESE,123,1.0,4.0,-999,-99.99,,,0.00,,2013-03-30 21:00:00,
2013-03-30 14:54:00,54.0,-99.9,-100.00,ESE,123,1.0,4.0,-999,-99.99,,,0.00,,2013-03-30 21:54:00,
2013-03-30 15:00:00,55.0,-99.9,-100.00,ESE,109,1.0,3.0,-999,-99.99,,,0.00,,2013-03-30 22:00:00,
2013-03-30 15:44:00,55.0,-99.9,-100.00,ESE,109,1.0,3.0,-999,-99.99,,,0.00,,2013-03-30 22:44:00,
2013-03-30 15:54:00,55.0,-99.9,-100.00,ESE,109,1.0,3.0,-999,-99.99,,,0.00,,2013-03-30 22:54:00,
2013-03-30 16:00:00,55.0,-99.9,-100.00,SE,146,1.0,2.0,-999,-99.99,,,0.00,,2013-03-30 23:00:00,
2013-03-30 16:43:00,55.0,-99.9,-100.00,SE,146,1.0,2.0,-999,-99.99,,,0.00,,2013-03-30 23:43:00,
2013-03-30 16:53:00,55.0,-99.9,-100.00,SE,146,1.0,2.0,-999,-99.99,,,0.00,,2013-03-30 23:53:00,
2013-03-30 17:00:00,54.0,-99.9,-100.00,SSE,152,1.0,2.0,-999,-99.99,,,0.00,,2013-03-31 00:00:00,
2013-03-30 18:00:00,52.0,-99.9,-100.00,ESE,109,1.0,2.0,-999,-99.99,,,0.00,,2013-03-31 01:00:00,
2013-03-30 19:00:00,50.0,-99.9,-100.00,West,274,0.0,3.0,-999,-99.99,,,0.00,,2013-03-31 02:00:00,
2013-03-30 20:00:00,47.0,-99.9,-100.00,West,275,3.0,5.0,-999,-99.99,,,0.00,,2013-03-31 03:00:00,
2013-03-30 21:00:00,45.0,-99.9,-100.00,West,260,1.0,3.0,-999,-99.99,,,0.00,,2013-03-31 04:00:00,
2013-03-30 22:00:00,45.0,-99.9,-100.00,South,178,0.0,1.0,-999,-99.99,,,0.00,,2013-03-31 05:00:00,
2013-03-30 23:00:00,45.0,-99.9,-100.00,ESE,103,0.0,2.0,-999,-99.99,,,0.00,,2013-03-31 06:00:00,